createdAt,value
2018-03-26T00:00:32.528Z,9.40
2018-03-26T00:03:00.903Z,9.30
2018-03-26T00:05:29.193Z,9.40
2018-03-26T00:07:57.561Z,9.40
2018-03-26T00:10:25.913Z,9.40
2018-03-26T00:12:54.224Z,9.30
2018-03-26T00:15:22.597Z,9.20
2018-03-26T00:17:50.978Z,9.20
2018-03-26T00:20:19.241Z,9.20
2018-03-26T00:22:47.522Z,9.30
2018-03-26T00:25:15.909Z,9.30
2018-03-26T00:27:44.185Z,9.30
2018-03-26T00:30:12.465Z,9.30
2018-03-26T00:32:40.757Z,9.30
2018-03-26T00:35:09.132Z,9.20
2018-03-26T00:37:38.317Z,9.10
2018-03-26T00:40:06.585Z,9.10
2018-03-26T00:42:34.856Z,9.00
2018-03-26T00:45:03.164Z,8.80
2018-03-26T00:47:31.529Z,8.60
2018-03-26T00:49:59.821Z,8.50
2018-03-26T00:52:28.856Z,8.50
2018-03-26T00:54:57.144Z,8.50
2018-03-26T00:57:25.467Z,8.50
2018-03-26T00:59:53.743Z,8.50
2018-03-26T01:02:23.518Z,8.50
2018-03-26T01:04:51.841Z,8.50
2018-03-26T01:07:21.633Z,8.50
2018-03-26T01:09:49.920Z,8.50
2018-03-26T01:12:18.985Z,8.40
2018-03-26T01:14:47.309Z,8.40
2018-03-26T01:17:16.358Z,8.50
2018-03-26T01:19:44.640Z,8.50
2018-03-26T01:22:12.997Z,8.50
2018-03-26T01:24:41.228Z,8.60
2018-03-26T01:27:09.629Z,8.70
2018-03-26T01:29:38.589Z,8.70
2018-03-26T01:32:06.873Z,8.60
2018-03-26T01:34:36.648Z,8.50
2018-03-26T01:37:04.960Z,8.50
2018-03-26T01:39:33.994Z,8.50
2018-03-26T01:42:03.175Z,8.60
2018-03-26T01:44:31.440Z,8.50
2018-03-26T01:46:59.753Z,8.50
2018-03-26T01:49:28.082Z,8.50
2018-03-26T01:51:56.362Z,8.60
2018-03-26T01:54:24.745Z,8.60
2018-03-26T01:56:53.025Z,8.60
2018-03-26T01:59:21.500Z,8.60
2018-03-26T02:01:49.884Z,8.70
2018-03-26T02:04:18.156Z,8.70
2018-03-26T02:06:46.441Z,8.70
2018-03-26T02:09:14.712Z,8.80
2018-03-26T02:11:43.061Z,8.60
2018-03-26T02:14:11.347Z,8.50
2018-03-26T02:16:39.656Z,8.40
2018-03-26T02:19:07.950Z,8.50
2018-03-26T02:21:36.984Z,8.30
2018-03-26T02:24:05.400Z,8.20
2018-03-26T02:26:33.674Z,8.10
2018-03-26T02:29:01.942Z,7.90
2018-03-26T02:31:30.234Z,7.90
2018-03-26T02:34:00.014Z,8.00
2018-03-26T02:36:28.333Z,8.00
2018-03-26T02:38:56.595Z,7.90
2018-03-26T02:41:25.080Z,7.70
2018-03-26T02:43:53.332Z,7.70
2018-03-26T02:46:21.631Z,7.60
2018-03-26T02:48:49.896Z,7.50
2018-03-26T02:51:18.391Z,7.50
2018-03-26T02:53:46.678Z,7.50
2018-03-26T02:56:15.064Z,7.40
2018-03-26T02:58:44.108Z,7.70
2018-03-26T03:01:12.412Z,7.70
2018-03-26T03:03:40.702Z,7.60
2018-03-26T03:06:08.980Z,7.60
2018-03-26T03:08:37.266Z,7.70
2018-03-26T03:11:06.297Z,7.70
2018-03-26T03:13:34.593Z,7.70
2018-03-26T03:16:02.928Z,7.60
2018-03-26T03:18:31.282Z,7.70
2018-03-26T03:20:59.565Z,7.80
2018-03-26T03:23:27.945Z,7.90
2018-03-26T03:25:56.976Z,8.00
2018-03-26T03:28:25.260Z,8.00
2018-03-26T03:30:53.527Z,8.00
2018-03-26T03:33:22.683Z,8.00
2018-03-26T03:35:50.961Z,8.00
2018-03-26T03:38:19.237Z,8.10
2018-03-26T03:40:47.535Z,8.00
2018-03-26T03:43:15.811Z,8.00
2018-03-26T03:45:44.992Z,7.90
2018-03-26T03:48:13.246Z,7.90
2018-03-26T03:50:41.548Z,7.90
2018-03-26T03:53:09.812Z,7.90
2018-03-26T03:55:38.096Z,7.90
2018-03-26T03:58:06.379Z,7.90
2018-03-26T04:00:34.671Z,8.10
2018-03-26T04:03:04.469Z,7.90
2018-03-26T04:05:32.950Z,7.90
2018-03-26T04:08:01.233Z,8.00
2018-03-26T04:10:29.710Z,8.10
2018-03-26T04:12:58.190Z,8.10
2018-03-26T04:15:26.444Z,8.10
2018-03-26T04:17:54.786Z,8.10
2018-03-26T04:20:23.128Z,8.20
2018-03-26T04:22:51.430Z,8.20
2018-03-26T04:25:19.736Z,8.20
2018-03-26T04:27:48.032Z,8.10
2018-03-26T04:30:16.343Z,8.00
2018-03-26T04:32:44.617Z,7.90
2018-03-26T04:35:12.889Z,7.90
2018-03-26T04:37:41.168Z,8.10
2018-03-26T04:40:09.468Z,8.10
2018-03-26T04:42:37.755Z,8.20
2018-03-26T04:45:06.821Z,8.10
2018-03-26T04:47:35.107Z,8.10
2018-03-26T04:50:03.401Z,8.10
2018-03-26T04:52:32.776Z,8.00
2018-03-26T04:55:01.056Z,7.90
2018-03-26T04:57:29.318Z,8.00
2018-03-26T04:59:57.620Z,8.00
2018-03-26T05:02:25.884Z,8.00
2018-03-26T05:04:54.168Z,8.00
2018-03-26T05:07:23.261Z,7.90
2018-03-26T05:09:51.642Z,7.90
2018-03-26T05:12:19.911Z,8.00
2018-03-26T05:14:48.189Z,8.00
2018-03-26T05:17:16.469Z,7.90
2018-03-26T05:19:44.851Z,7.80
2018-03-26T05:22:13.124Z,7.70
2018-03-26T05:24:41.605Z,7.80
2018-03-26T05:27:09.860Z,7.80
2018-03-26T05:29:38.263Z,7.90
2018-03-26T05:32:06.529Z,7.90
2018-03-26T05:34:34.920Z,8.00
2018-03-26T05:37:03.301Z,8.10
2018-03-26T05:39:31.575Z,8.20
2018-03-26T05:41:59.868Z,8.20
2018-03-26T05:44:28.232Z,8.30
2018-03-26T05:46:56.626Z,8.20
2018-03-26T05:49:26.433Z,8.00
2018-03-26T05:51:54.806Z,8.00
2018-03-26T05:54:23.097Z,7.90
2018-03-26T05:56:52.149Z,7.80
2018-03-26T05:59:20.417Z,7.80
2018-03-26T06:01:48.757Z,7.80
2018-03-26T06:04:18.686Z,7.80
2018-03-26T06:06:47.747Z,7.80
2018-03-26T06:09:16.023Z,7.80
2018-03-26T06:11:44.298Z,7.90
2018-03-26T06:14:12.684Z,8.00
2018-03-26T06:16:52.844Z,8.20
2018-03-26T06:19:22.633Z,8.30
2018-03-26T06:21:50.896Z,8.30
2018-03-26T06:24:19.202Z,8.40
2018-03-26T06:26:47.466Z,8.50
2018-03-26T06:29:15.751Z,8.50
2018-03-26T06:31:44.005Z,8.50
2018-03-26T06:34:12.292Z,8.50
2018-03-26T06:36:46.257Z,8.50
2018-03-26T06:39:30.033Z,8.10
2018-03-26T06:41:58.301Z,8.10
2018-03-26T06:44:26.585Z,8.10
2018-03-26T06:46:54.862Z,8.00
2018-03-26T06:49:23.176Z,7.90
2018-03-26T06:51:52.209Z,7.90
2018-03-26T06:54:20.492Z,7.80
2018-03-26T06:56:48.773Z,7.70
2018-03-26T06:59:17.097Z,7.60
2018-03-26T07:01:45.474Z,7.70
2018-03-26T07:04:13.769Z,7.70
2018-03-26T07:06:42.066Z,7.60
2018-03-26T07:09:11.098Z,7.50
2018-03-26T07:11:39.380Z,7.50
2018-03-26T07:14:07.656Z,7.50
2018-03-26T07:16:35.965Z,7.60
2018-03-26T07:19:04.244Z,7.60
2018-03-26T07:21:32.543Z,7.60
2018-03-26T07:24:00.834Z,7.70
2018-03-26T07:26:29.860Z,7.70
2018-03-26T07:28:58.183Z,7.70
2018-03-26T07:31:26.546Z,7.50
2018-03-26T07:33:54.922Z,7.60
2018-03-26T07:36:23.197Z,7.50
2018-03-26T07:38:51.597Z,7.60
2018-03-26T07:41:20.676Z,7.60
2018-03-26T07:43:48.935Z,7.60
2018-03-26T07:46:17.200Z,7.80
2018-03-26T07:48:45.497Z,7.80
2018-03-26T07:51:13.771Z,7.80
2018-03-26T07:53:42.063Z,7.80
2018-03-26T07:56:10.331Z,7.80
2018-03-26T07:58:39.801Z,7.90
2018-03-26T08:01:08.489Z,7.90
2018-03-26T08:03:36.825Z,8.00
2018-03-26T08:06:05.273Z,8.00
2018-03-26T08:08:34.393Z,7.90
2018-03-26T08:11:02.663Z,7.90
2018-03-26T08:13:30.928Z,7.90
2018-03-26T08:15:59.344Z,8.00
2018-03-26T08:18:28.435Z,8.00
2018-03-26T08:20:56.901Z,7.90
2018-03-26T08:23:25.180Z,8.00
2018-03-26T08:25:53.469Z,8.00
2018-03-26T08:28:21.729Z,7.90
2018-03-26T08:30:50.009Z,7.90
2018-03-26T08:33:18.281Z,7.90
2018-03-26T08:35:46.670Z,7.90
2018-03-26T08:38:14.950Z,7.80
2018-03-26T08:40:44.751Z,7.90
2018-03-26T08:43:13.014Z,8.00
2018-03-26T08:45:41.514Z,8.20
2018-03-26T08:48:09.760Z,8.30
2018-03-26T08:50:38.030Z,8.40
2018-03-26T08:53:06.312Z,8.50
2018-03-26T08:55:34.581Z,8.70
2018-03-26T08:58:02.861Z,8.40
2018-03-26T09:00:31.173Z,8.60
2018-03-26T09:02:59.464Z,8.60
2018-03-26T09:05:28.510Z,8.70
2018-03-26T09:07:56.797Z,8.70
2018-03-26T09:10:25.066Z,8.70
2018-03-26T09:12:53.369Z,9.00
2018-03-26T09:15:21.657Z,9.10
2018-03-26T09:17:49.947Z,9.20
2018-03-26T09:20:19.750Z,9.50
2018-03-26T09:22:48.024Z,9.40
2018-03-26T09:25:16.296Z,9.60
2018-03-26T09:27:44.577Z,9.20
2018-03-26T09:30:12.877Z,9.10
2018-03-26T09:32:42.684Z,9.00
2018-03-26T09:35:11.079Z,9.10
2018-03-26T09:37:39.341Z,9.20
2018-03-26T09:40:07.633Z,9.10
2018-03-26T09:42:35.906Z,9.10
2018-03-26T09:45:04.980Z,9.20
2018-03-26T09:47:33.258Z,9.20
2018-03-26T09:50:01.620Z,9.30
2018-03-26T09:52:29.907Z,9.30
2018-03-26T09:54:58.194Z,9.30
2018-03-26T09:57:26.462Z,9.30
2018-03-26T09:59:54.748Z,9.00
2018-03-26T10:02:23.031Z,9.00
2018-03-26T10:04:51.305Z,8.90
2018-03-26T10:07:19.576Z,9.00
2018-03-26T10:09:48.640Z,8.80
2018-03-26T10:12:16.914Z,8.70
2018-03-26T10:14:45.201Z,8.70
2018-03-26T10:17:13.480Z,8.60
2018-03-26T10:19:41.815Z,8.70
2018-03-26T10:22:11.773Z,8.60
2018-03-26T10:24:40.044Z,8.60
2018-03-26T10:27:09.195Z,8.90
2018-03-26T10:29:38.289Z,8.80
2018-03-26T10:32:06.562Z,8.80
2018-03-26T10:34:34.829Z,9.00
2018-03-26T10:37:03.109Z,9.10
2018-03-26T10:39:31.369Z,9.40
2018-03-26T10:41:59.661Z,9.40
2018-03-26T10:44:27.924Z,9.20
2018-03-26T10:46:57.466Z,9.30
2018-03-26T10:49:25.721Z,9.00
2018-03-26T10:51:54.027Z,8.80
2018-03-26T10:54:23.057Z,8.40
2018-03-26T10:56:51.372Z,8.40
2018-03-26T10:59:19.654Z,8.20
2018-03-26T11:01:48.733Z,8.20
2018-03-26T11:04:17.073Z,8.20
2018-03-26T11:06:45.596Z,8.20
2018-03-26T11:09:15.408Z,7.90
2018-03-26T11:11:43.689Z,7.90
2018-03-26T11:14:12.017Z,7.90
2018-03-26T11:16:40.296Z,7.90
2018-03-26T11:19:08.606Z,7.80
2018-03-26T11:21:36.890Z,7.80
2018-03-26T11:24:05.169Z,8.00
2018-03-26T11:26:33.446Z,8.20
2018-03-26T11:29:01.742Z,8.10
2018-03-26T11:31:30.776Z,7.90
2018-03-26T11:33:59.064Z,7.60
2018-03-26T11:36:27.343Z,7.40
2018-03-26T11:38:55.614Z,7.50
2018-03-26T11:41:24.603Z,7.40
2018-03-26T11:43:52.863Z,7.40
2018-03-26T11:46:21.914Z,7.50
2018-03-26T11:48:50.189Z,7.40
2018-03-26T11:51:18.491Z,7.40
2018-03-26T11:53:46.862Z,7.50
2018-03-26T11:56:15.234Z,7.60
2018-03-26T11:58:43.502Z,7.80
2018-03-26T12:01:11.787Z,7.90
2018-03-26T12:03:40.069Z,7.90
2018-03-26T12:06:08.372Z,8.00
2018-03-26T12:08:38.016Z,8.00
2018-03-26T12:11:06.290Z,8.00
2018-03-26T12:13:34.568Z,7.80
2018-03-26T12:16:02.891Z,7.90
2018-03-26T12:18:31.176Z,7.70
2018-03-26T12:21:00.330Z,7.60
2018-03-26T12:23:40.420Z,7.70
2018-03-26T12:26:08.694Z,7.70
2018-03-26T12:28:48.904Z,7.80
2018-03-26T12:31:17.201Z,7.70
2018-03-26T12:33:57.335Z,7.70
2018-03-26T12:36:25.634Z,7.60
2018-03-26T12:38:53.896Z,7.50
2018-03-26T12:41:22.170Z,7.40
2018-03-26T12:43:50.473Z,7.20
2018-03-26T12:46:30.688Z,7.20
2018-03-26T12:48:59.728Z,7.30
2018-03-26T12:51:39.926Z,7.30
2018-03-26T12:54:08.288Z,7.30
2018-03-26T12:56:36.759Z,7.10
2018-03-26T12:59:05.066Z,7.20
2018-03-26T13:04:30.580Z,7.30
2018-03-26T13:06:58.922Z,7.30
2018-03-26T13:09:27.188Z,7.10
2018-03-26T13:11:55.503Z,7.30
2018-03-26T13:14:23.778Z,7.50
2018-03-26T13:16:52.152Z,7.50
2018-03-26T13:19:20.424Z,7.70
2018-03-26T13:21:48.712Z,7.70
2018-03-26T13:24:17.107Z,7.70
2018-03-26T13:26:46.130Z,7.60
2018-03-26T13:29:15.180Z,7.60
2018-03-26T13:31:43.479Z,7.60
2018-03-26T13:34:12.543Z,7.80
2018-03-26T13:36:40.945Z,7.70
2018-03-26T13:39:10.044Z,7.60
2018-03-26T13:41:38.325Z,7.60
2018-03-26T13:44:06.638Z,7.80
2018-03-26T13:46:34.916Z,7.80
2018-03-26T13:49:03.188Z,7.80
2018-03-26T13:51:31.488Z,7.70
2018-03-26T13:53:59.752Z,7.80
2018-03-26T13:56:28.101Z,7.90
2018-03-26T13:58:56.395Z,7.80
2018-03-26T14:01:25.444Z,7.80
2018-03-26T14:03:53.713Z,7.80
2018-03-26T14:06:22.013Z,7.80
2018-03-26T14:09:02.249Z,7.70
2018-03-26T14:11:42.493Z,7.80
2018-03-26T14:14:22.614Z,7.90
2018-03-26T14:17:03.698Z,8.10
2018-03-26T14:19:31.953Z,8.10
2018-03-26T14:22:01.010Z,9.20
2018-03-26T14:24:29.293Z,9.20
2018-03-26T14:26:58.008Z,10.50
2018-03-26T14:29:27.056Z,15.40
2018-03-26T14:31:55.376Z,15.40
2018-03-26T14:34:23.660Z,16.90
2018-03-26T14:36:52.737Z,19.20
2018-03-26T14:39:21.002Z,19.20
2018-03-26T14:41:49.275Z,18.90
2018-03-26T14:44:17.676Z,17.90
2018-03-26T14:46:45.944Z,17.40
2018-03-26T14:49:14.325Z,16.90
2018-03-26T14:51:42.700Z,15.60
2018-03-26T14:54:10.975Z,14.80
2018-03-26T14:56:39.249Z,14.30
2018-03-26T14:59:07.545Z,13.20
2018-03-26T15:01:36.576Z,14.20
2018-03-26T15:04:04.873Z,14.20
2018-03-26T15:06:33.143Z,14.40
2018-03-26T15:09:01.435Z,14.70
2018-03-26T15:11:29.770Z,15.10
2018-03-26T15:13:58.025Z,15.40
2018-03-26T15:16:26.328Z,16.30
2018-03-26T15:18:55.386Z,17.70
2018-03-26T15:21:23.795Z,17.70
2018-03-26T15:23:52.174Z,18.20
2018-03-26T15:26:21.216Z,17.80
2018-03-26T15:28:49.496Z,17.80
2018-03-26T15:31:17.775Z,18.40
2018-03-26T15:33:46.036Z,17.50
2018-03-26T15:36:14.315Z,15.90
2018-03-26T15:38:42.590Z,15.10
2018-03-26T15:41:11.757Z,15.10
2018-03-26T15:43:40.780Z,14.50
2018-03-26T15:46:09.078Z,14.40
2018-03-26T15:48:37.337Z,14.80
2018-03-26T15:51:05.704Z,15.60
2018-03-26T15:53:34.000Z,16.10
2018-03-26T15:56:02.262Z,16.70
2018-03-26T15:58:30.590Z,16.80
2018-03-26T16:00:59.309Z,16.70
2018-03-26T16:03:31.118Z,16.80
2018-03-26T16:05:59.373Z,16.40
2018-03-26T16:08:27.688Z,16.40
2018-03-26T16:10:55.987Z,15.20
2018-03-26T16:13:24.244Z,14.50
2018-03-26T16:15:52.525Z,13.60
2018-03-26T16:18:20.807Z,12.90
2018-03-26T16:20:49.076Z,12.90
2018-03-26T16:23:17.369Z,13.10
2018-03-26T16:25:45.649Z,13.30
2018-03-26T16:28:14.027Z,13.70
2018-03-26T16:30:42.289Z,13.90
2018-03-26T16:33:10.673Z,13.90
2018-03-26T16:35:38.951Z,13.50
2018-03-26T16:38:08.737Z,12.30
2018-03-26T16:40:37.022Z,12.30
2018-03-26T16:43:05.309Z,11.90
2018-03-26T16:45:33.706Z,11.40
2018-03-26T16:48:02.085Z,11.20
2018-03-26T16:50:30.447Z,10.60
2018-03-26T16:52:58.715Z,10.60
2018-03-26T16:55:27.008Z,10.50
2018-03-26T16:57:55.266Z,10.40
2018-03-26T17:00:23.549Z,10.50
2018-03-26T17:02:51.805Z,10.40
2018-03-26T17:05:20.090Z,10.40
2018-03-26T17:07:48.386Z,10.40
2018-03-26T17:10:16.661Z,10.00
2018-03-26T17:12:44.952Z,9.80
2018-03-26T17:15:14.760Z,8.60
2018-03-26T17:17:43.019Z,8.60
2018-03-26T17:20:11.322Z,8.40
2018-03-26T17:22:39.592Z,8.30
2018-03-26T17:25:07.848Z,8.20
2018-03-26T17:27:36.123Z,7.60
2018-03-26T17:30:04.415Z,7.40
2018-03-26T17:32:32.709Z,7.20
2018-03-26T17:35:01.811Z,6.90
2018-03-26T17:37:30.851Z,6.80
2018-03-26T17:39:59.173Z,6.80
2018-03-26T17:42:27.452Z,6.90
2018-03-26T17:44:55.821Z,6.90
2018-03-26T17:47:24.100Z,6.80
2018-03-26T17:49:52.365Z,6.60
2018-03-26T17:52:20.751Z,6.50
2018-03-26T17:54:49.020Z,6.40
2018-03-26T17:57:17.275Z,6.40
2018-03-26T17:59:45.545Z,6.20
2018-03-26T18:02:13.796Z,6.00
2018-03-26T18:04:42.857Z,5.90
2018-03-26T18:07:11.104Z,5.90
2018-03-26T18:09:39.385Z,5.90
2018-03-26T18:12:07.663Z,5.80
2018-03-26T18:14:35.937Z,5.70
2018-03-26T18:17:04.204Z,5.70
2018-03-26T18:19:32.487Z,5.60
2018-03-26T18:22:00.748Z,5.60
2018-03-26T18:24:29.033Z,5.40
2018-03-26T18:26:58.019Z,5.40
2018-03-26T18:29:27.745Z,5.40
2018-03-26T18:31:56.028Z,5.40
2018-03-26T18:34:24.332Z,5.40
2018-03-26T18:36:52.711Z,5.20
2018-03-26T18:39:20.948Z,5.20
2018-03-26T18:41:49.267Z,5.20
2018-03-26T18:44:17.522Z,5.20
2018-03-26T18:46:45.798Z,5.30
2018-03-26T18:49:14.107Z,5.20
2018-03-26T18:51:42.384Z,5.10
2018-03-26T18:54:10.753Z,5.10
2018-03-26T18:56:39.030Z,4.90
2018-03-26T18:59:07.286Z,4.80
2018-03-26T19:01:35.594Z,4.80
2018-03-26T19:04:03.963Z,4.80
2018-03-26T19:06:32.220Z,4.90
2018-03-26T19:09:00.516Z,4.80
2018-03-26T19:11:28.806Z,4.80
2018-03-26T19:13:57.080Z,4.70
2018-03-26T19:16:25.363Z,4.60
2018-03-26T19:18:53.677Z,4.50
2018-03-26T19:21:22.765Z,4.50
2018-03-26T19:23:51.814Z,4.60
2018-03-26T19:26:20.066Z,4.60
2018-03-26T19:28:48.400Z,4.50
2018-03-26T19:31:16.652Z,4.50
2018-03-26T19:33:45.042Z,4.50
2018-03-26T19:36:13.344Z,4.30
2018-03-26T19:38:42.384Z,4.20
2018-03-26T19:41:10.654Z,4.20
2018-03-26T19:43:38.912Z,4.20
2018-03-26T19:46:07.956Z,4.00
2018-03-26T19:48:36.204Z,4.00
2018-03-26T19:51:04.497Z,4.00
2018-03-26T19:53:32.764Z,4.00
2018-03-26T19:56:01.048Z,4.00
2018-03-26T19:58:29.323Z,4.00
2018-03-26T20:00:57.610Z,4.10
2018-03-26T20:03:25.864Z,4.10
2018-03-26T20:05:54.153Z,4.00
2018-03-26T20:08:22.413Z,4.10
2018-03-26T20:10:50.722Z,4.00
2018-03-26T20:13:18.986Z,4.00
2018-03-26T20:15:47.288Z,4.00
2018-03-26T20:18:15.716Z,4.10
2018-03-26T20:20:43.941Z,4.10
2018-03-26T20:23:12.224Z,4.10
2018-03-26T20:25:40.486Z,4.20
2018-03-26T20:28:08.755Z,4.00
2018-03-26T20:30:37.013Z,4.10
2018-03-26T20:33:05.329Z,4.20
2018-03-26T20:35:33.705Z,4.20
2018-03-26T20:38:02.002Z,4.20
2018-03-26T20:40:31.780Z,4.20
2018-03-26T20:43:00.074Z,4.20
2018-03-26T20:45:28.446Z,4.30
2018-03-26T20:47:56.731Z,4.30
2018-03-26T20:50:24.987Z,4.30
2018-03-26T20:52:53.252Z,4.40
2018-03-26T20:55:21.533Z,4.40
2018-03-26T20:57:49.805Z,4.30
2018-03-26T21:00:18.121Z,4.30
2018-03-26T21:02:46.488Z,4.30
2018-03-26T21:05:14.770Z,4.30
2018-03-26T21:07:43.032Z,4.20
2018-03-26T21:10:11.315Z,4.30
2018-03-26T21:12:39.565Z,4.20
2018-03-26T21:15:07.876Z,4.40
2018-03-26T21:17:36.150Z,4.40
2018-03-26T21:20:04.423Z,4.40
2018-03-26T21:22:32.689Z,4.50
2018-03-26T21:25:00.976Z,4.40
2018-03-26T21:27:29.240Z,4.40
2018-03-26T21:29:57.530Z,4.40
2018-03-26T21:32:25.808Z,4.40
2018-03-26T21:34:54.085Z,4.30
2018-03-26T21:37:22.864Z,4.30
2018-03-26T21:39:51.155Z,4.50
2018-03-26T21:42:19.413Z,4.60
2018-03-26T21:44:47.708Z,4.60
2018-03-26T21:47:15.968Z,4.60
2018-03-26T21:49:44.236Z,4.70
2018-03-26T21:52:12.514Z,4.80
2018-03-26T21:54:40.772Z,4.90
2018-03-26T21:57:09.047Z,4.80
2018-03-26T21:59:38.073Z,4.90
2018-03-26T22:02:06.354Z,4.90
2018-03-26T22:04:34.661Z,4.90
2018-03-26T22:07:03.024Z,4.90
2018-03-26T22:09:31.273Z,5.00
2018-03-26T22:11:59.560Z,5.20
2018-03-26T22:14:27.840Z,5.30
2018-03-26T22:16:56.125Z,5.00
2018-03-26T22:19:25.336Z,4.90
2018-03-26T22:21:53.608Z,4.90
2018-03-26T22:24:21.992Z,4.80
2018-03-26T22:26:50.367Z,5.00
2018-03-26T22:29:18.721Z,5.10
2018-03-26T22:31:47.031Z,5.40
2018-03-26T22:34:15.302Z,5.30
2018-03-26T22:36:43.553Z,5.60
2018-03-26T22:39:11.829Z,5.50
2018-03-26T22:41:40.744Z,5.60
2018-03-26T22:44:09.126Z,5.50
2018-03-26T22:46:37.376Z,5.40
2018-03-26T22:49:05.632Z,5.60
2018-03-26T22:51:33.908Z,5.60
2018-03-26T22:54:02.169Z,5.50
2018-03-26T22:56:31.216Z,5.20
2018-03-26T22:58:59.485Z,5.20
2018-03-26T23:01:27.789Z,5.30
2018-03-26T23:03:56.042Z,5.30
2018-03-26T23:06:24.330Z,5.40
2018-03-26T23:08:52.597Z,5.40
2018-03-26T23:11:20.877Z,5.20
2018-03-26T23:13:49.143Z,5.20
2018-03-26T23:16:17.443Z,5.30
2018-03-26T23:18:45.707Z,5.30
2018-03-26T23:21:13.973Z,5.00
2018-03-26T23:23:42.304Z,5.10
2018-03-26T23:26:11.325Z,4.90
2018-03-26T23:28:39.591Z,4.90
2018-03-26T23:31:08.629Z,4.80
2018-03-26T23:33:36.911Z,4.70
2018-03-26T23:36:05.188Z,4.70
2018-03-26T23:38:33.472Z,4.70
2018-03-26T23:41:01.738Z,5.00
2018-03-26T23:43:30.012Z,5.20
2018-03-26T23:45:58.265Z,5.30
2018-03-26T23:48:26.577Z,5.30
2018-03-26T23:50:54.860Z,5.30
2018-03-26T23:53:23.155Z,5.30
2018-03-26T23:55:51.409Z,5.00
2018-03-26T23:58:19.700Z,4.90
